Time,TemperatureF,DewpointF,PressureIn,WindDirection,WindDirectionDegrees,WindSpeedMPH,WindSpeedGustMPH,Humidity,HourlyPrecipIn,Conditions,Clouds,dailyrainin,SoftwareType,DateUTC
2013-11-20 00:22:00,33.0,-99.9,-100.00,SSE,159,2.0,5.0,-999,-99.99,,,-99.99,,2013-11-20 05:22:00,
2013-11-20 00:53:00,33.0,-99.9,-100.00,SSE,165,1.0,6.0,-999,-99.99,,,-99.99,,2013-11-20 05:53:00,
2013-11-20 01:12:00,33.0,-99.9,-100.00,SSE,165,1.0,6.0,-999,-99.99,,,-99.99,,2013-11-20 06:12:00,
2013-11-20 01:22:00,32.0,-99.9,-100.00,North,-999,0.0,1.0,-999,-99.99,,,-99.99,,2013-11-20 06:22:00,
2013-11-20 01:32:00,32.0,-99.9,-100.00,North,-999,0.0,1.0,-999,-99.99,,,-99.99,,2013-11-20 06:32:00,
2013-11-20 02:22:00,31.0,-99.9,-100.00,North,-999,0.0,3.0,-999,-99.99,,,-99.99,,2013-11-20 07:22:00,
2013-11-20 02:32:00,31.0,-99.9,-100.00,North,-999,0.0,3.0,-999,-99.99,,,-99.99,,2013-11-20 07:32:00,
2013-11-20 02:52:00,32.0,-99.9,-100.00,North,-999,0.0,4.0,-999,-99.99,,,-99.99,,2013-11-20 07:52:00,
2013-11-20 03:12:00,32.0,-99.9,-100.00,North,-999,0.0,4.0,-999,-99.99,,,-99.99,,2013-11-20 08:12:00,
2013-11-20 03:22:00,31.0,-99.9,-100.00,SW,232,1.0,4.0,-999,-99.99,,,-99.99,,2013-11-20 08:22:00,
2013-11-20 03:32:00,31.0,-99.9,-100.00,SW,232,1.0,4.0,-999,-99.99,,,-99.99,,2013-11-20 08:32:00,
2013-11-20 03:52:00,31.0,-99.9,-100.00,WSW,249,0.0,4.0,-999,-99.99,,,-99.99,,2013-11-20 08:52:00,
2013-11-20 04:02:00,31.0,-99.9,-100.00,WSW,249,0.0,4.0,-999,-99.99,,,-99.99,,2013-11-20 09:02:00,
2013-11-20 04:13:00,31.0,-99.9,-100.00,WSW,249,0.0,4.0,-999,-99.99,,,-99.99,,2013-11-20 09:13:00,
2013-11-20 04:22:00,32.0,-99.9,-100.00,SE,145,1.0,5.0,-999,-99.99,,,-99.99,,2013-11-20 09:22:00,
2013-11-20 04:44:00,32.0,-99.9,-100.00,ESE,106,2.0,8.0,-999,-99.99,,,-99.99,,2013-11-20 09:44:00,
2013-11-20 05:13:00,32.0,-99.9,-100.00,ESE,106,2.0,8.0,-999,-99.99,,,-99.99,,2013-11-20 10:13:00,
2013-11-20 05:23:00,31.0,-99.9,-100.00,SSE,168,1.0,5.0,-999,-99.99,,,-99.99,,2013-11-20 10:23:00,
2013-11-20 05:33:00,31.0,-99.9,-100.00,SSE,168,1.0,5.0,-999,-99.99,,,-99.99,,2013-11-20 10:33:00,
2013-11-20 05:53:00,31.0,-99.9,-100.00,West,277,1.0,9.0,-999,-99.99,,,-99.99,,2013-11-20 10:53:00,
2013-11-20 06:03:00,31.0,-99.9,-100.00,West,277,1.0,9.0,-999,-99.99,,,-99.99,,2013-11-20 11:03:00,
2013-11-20 06:22:00,32.0,-99.9,-100.00,SE,127,3.0,10.0,-999,-99.99,,,-99.99,,2013-11-20 11:22:00,
2013-11-20 06:33:00,32.0,-99.9,-100.00,SE,127,3.0,10.0,-999,-99.99,,,-99.99,,2013-11-20 11:33:00,
2013-11-20 06:52:00,32.0,-99.9,-100.00,SSE,150,3.0,10.0,-999,-99.99,,,-99.99,,2013-11-20 11:52:00,
2013-11-20 07:02:00,32.0,-99.9,-100.00,SSE,150,3.0,10.0,-999,-99.99,,,-99.99,,2013-11-20 12:02:00,
2013-11-20 07:22:00,32.0,-99.9,-100.00,SE,138,4.0,9.0,-999,-99.99,,,-99.99,,2013-11-20 12:22:00,
2013-11-20 07:42:00,32.0,-99.9,-100.00,ESE,122,2.0,10.0,-999,-99.99,,,-99.99,,2013-11-20 12:42:00,
2013-11-20 08:22:00,32.0,-99.9,-100.00,SW,222,1.0,10.0,-999,-99.99,,,-99.99,,2013-11-20 13:22:00,
2013-11-20 08:42:00,32.0,-99.9,-100.00,SE,130,3.0,9.0,-999,-99.99,,,-99.99,,2013-11-20 13:42:00,
2013-11-20 08:52:00,32.0,-99.9,-100.00,SE,130,3.0,9.0,-999,-99.99,,,-99.99,,2013-11-20 13:52:00,
2013-11-20 09:00:00,33.0,-99.9,-100.00,SSE,165,2.0,7.0,-999,-99.99,,,-99.99,,2013-11-20 14:00:00,
2013-11-20 09:12:00,32.0,-99.9,-100.00,SE,130,3.0,9.0,-999,-99.99,,,-99.99,,2013-11-20 14:12:00,
2013-11-20 09:22:00,33.0,-99.9,-100.00,SSE,165,2.0,7.0,-999,-99.99,,,-99.99,,2013-11-20 14:22:00,
2013-11-20 09:32:00,33.0,-99.9,-100.00,SSE,165,2.0,7.0,-999,-99.99,,,-99.99,,2013-11-20 14:32:00,
2013-11-20 09:42:00,33.0,-99.9,-100.00,SSE,165,2.0,7.0,-999,-99.99,,,-99.99,,2013-11-20 14:42:00,
2013-11-20 09:52:00,33.0,-99.9,-100.00,SSE,165,2.0,7.0,-999,-99.99,,,-99.99,,2013-11-20 14:52:00,
2013-11-20 10:22:00,36.0,-99.9,-100.00,SSE,164,3.0,11.0,-999,-99.99,,,-99.99,,2013-11-20 15:22:00,
2013-11-20 10:34:00,36.0,-99.9,-100.00,SSE,164,3.0,11.0,-999,-99.99,,,-99.99,,2013-11-20 15:34:00,
2013-11-20 10:54:00,35.0,-99.9,-100.00,SE,135,4.0,12.0,-999,-99.99,,,-99.99,,2013-11-20 15:54:00,
2013-11-20 11:12:00,35.0,-99.9,-100.00,SE,135,4.0,12.0,-999,-99.99,,,-99.99,,2013-11-20 16:12:00,
2013-11-20 11:23:00,38.0,-99.9,-100.00,SSE,160,3.0,11.0,-999,-99.99,,,-99.99,,2013-11-20 16:23:00,
2013-11-20 11:43:00,38.0,-99.9,-100.00,SSE,156,5.0,16.0,-999,-99.99,,,-99.99,,2013-11-20 16:43:00,
2013-11-20 11:52:00,38.0,-99.9,-100.00,SSE,156,5.0,16.0,-999,-99.99,,,-99.99,,2013-11-20 16:52:00,
2013-11-20 12:02:00,38.0,-99.9,-100.00,SSE,156,5.0,16.0,-999,-99.99,,,-99.99,,2013-11-20 17:02:00,
2013-11-20 12:22:00,40.0,-99.9,-100.00,SE,141,6.0,15.0,-999,-99.99,,,-99.99,,2013-11-20 17:22:00,
2013-11-20 12:33:00,40.0,-99.9,-100.00,SE,141,6.0,15.0,-999,-99.99,,,-99.99,,2013-11-20 17:33:00,
2013-11-20 12:42:00,40.0,-99.9,-100.00,SE,141,6.0,15.0,-999,-99.99,,,-99.99,,2013-11-20 17:42:00,
2013-11-20 12:52:00,40.0,-99.9,-100.00,SE,141,6.0,15.0,-999,-99.99,,,-99.99,,2013-11-20 17:52:00,
2013-11-20 13:12:00,40.0,-99.9,-100.00,SSE,158,7.0,16.0,-999,-99.99,,,-99.99,,2013-11-20 18:12:00,
2013-11-20 13:22:00,43.0,-99.9,-100.00,SSE,148,5.0,14.0,-999,-99.99,,,-99.99,,2013-11-20 18:22:00,
2013-11-20 13:33:00,43.0,-99.9,-100.00,SSE,148,5.0,14.0,-999,-99.99,,,-99.99,,2013-11-20 18:33:00,
2013-11-20 13:52:00,43.0,-99.9,-100.00,SSE,147,6.0,16.0,-999,-99.99,,,-99.99,,2013-11-20 18:52:00,
2013-11-20 14:12:00,43.0,-99.9,-100.00,SSE,147,6.0,16.0,-999,-99.99,,,-99.99,,2013-11-20 19:12:00,
2013-11-20 14:22:00,45.0,-99.9,-100.00,ESE,102,2.0,11.0,-999,-99.99,,,-99.99,,2013-11-20 19:22:00,
2013-11-20 14:32:00,45.0,-99.9,-100.00,ESE,102,2.0,11.0,-999,-99.99,,,-99.99,,2013-11-20 19:32:00,
2013-11-20 14:42:00,45.0,-99.9,-100.00,ESE,102,2.0,11.0,-999,-99.99,,,-99.99,,2013-11-20 19:42:00,
2013-11-20 14:52:00,45.0,-99.9,-100.00,ESE,102,2.0,11.0,-999,-99.99,,,-99.99,,2013-11-20 19:52:00,
2013-11-20 15:11:00,45.0,-99.9,-100.00,East,91,2.0,14.0,-999,-99.99,,,-99.99,,2013-11-20 20:11:00,
2013-11-20 15:22:00,45.0,-99.9,-100.00,SE,140,2.0,9.0,-999,-99.99,,,-99.99,,2013-11-20 20:22:00,
2013-11-20 15:32:00,45.0,-99.9,-100.00,SE,140,2.0,9.0,-999,-99.99,,,-99.99,,2013-11-20 20:32:00,
2013-11-20 15:42:00,45.0,-99.9,-100.00,SE,140,2.0,9.0,-999,-99.99,,,-99.99,,2013-11-20 20:42:00,
2013-11-20 15:53:00,45.0,-99.9,-100.00,SSE,154,2.0,11.0,-999,-99.99,,,-99.99,,2013-11-20 20:53:00,
2013-11-20 16:11:00,45.0,-99.9,-100.00,SSE,154,2.0,11.0,-999,-99.99,,,-99.99,,2013-11-20 21:11:00,
2013-11-20 16:22:00,44.0,-99.9,-100.00,ESE,123,2.0,7.0,-999,-99.99,,,-99.99,,2013-11-20 21:22:00,
2013-11-20 16:43:00,44.0,-99.9,-100.00,SE,143,2.0,9.0,-999,-99.99,,,-99.99,,2013-11-20 21:43:00,
2013-11-20 17:13:00,44.0,-99.9,-100.00,SE,143,2.0,9.0,-999,-99.99,,,-99.99,,2013-11-20 22:13:00,
2013-11-20 17:23:00,42.0,-99.9,-100.00,SE,143,4.0,10.0,-999,-99.99,,,-99.99,,2013-11-20 22:23:00,
2013-11-20 17:33:00,42.0,-99.9,-100.00,SE,143,4.0,10.0,-999,-99.99,,,-99.99,,2013-11-20 22:33:00,
2013-11-20 17:42:00,42.0,-99.9,-100.00,SE,143,4.0,10.0,-999,-99.99,,,-99.99,,2013-11-20 22:42:00,
2013-11-20 17:53:00,42.0,-99.9,-100.00,SE,143,4.0,10.0,-999,-99.99,,,-99.99,,2013-11-20 22:53:00,
2013-11-20 18:12:00,42.0,-99.9,-100.00,SE,143,4.0,10.0,-999,-99.99,,,-99.99,,2013-11-20 23:12:00,
2013-11-20 18:22:00,42.0,-99.9,-100.00,East,100,2.0,5.0,-999,-99.99,,,-99.99,,2013-11-20 23:22:00,
2013-11-20 18:43:00,42.0,-99.9,-100.00,East,100,2.0,8.0,-999,-99.99,,,-99.99,,2013-11-20 23:43:00,
2013-11-20 18:53:00,42.0,-99.9,-100.00,East,100,2.0,8.0,-999,-99.99,,,-99.99,,2013-11-20 23:53:00,
2013-11-20 19:11:00,42.0,-99.9,-100.00,East,100,2.0,8.0,-999,-99.99,,,-99.99,,2013-11-21 00:11:00,
2013-11-20 19:22:00,41.0,-99.9,-100.00,SE,135,2.0,5.0,-999,-99.99,,,-99.99,,2013-11-21 00:22:00,
2013-11-20 19:42:00,41.0,-99.9,-100.00,SE,135,2.0,9.0,-999,-99.99,,,-99.99,,2013-11-21 00:42:00,
2013-11-20 19:52:00,41.0,-99.9,-100.00,SE,135,2.0,9.0,-999,-99.99,,,-99.99,,2013-11-21 00:52:00,
2013-11-20 20:22:00,41.0,-99.9,-100.00,ESE,103,1.0,4.0,-999,-99.99,,,-99.99,,2013-11-21 01:22:00,
2013-11-20 20:32:00,41.0,-99.9,-100.00,ESE,103,1.0,4.0,-999,-99.99,,,-99.99,,2013-11-21 01:32:00,
2013-11-20 20:52:00,41.0,-99.9,-100.00,ESE,103,1.0,9.0,-999,-99.99,,,-99.99,,2013-11-21 01:52:00,
2013-11-20 21:02:00,41.0,-99.9,-100.00,ESE,103,1.0,9.0,-999,-99.99,,,-99.99,,2013-11-21 02:02:00,
2013-11-20 21:22:00,41.0,-99.9,-100.00,SE,130,2.0,9.0,-999,-99.99,,,-99.99,,2013-11-21 02:22:00,
2013-11-20 21:32:00,41.0,-99.9,-100.00,SE,130,2.0,9.0,-999,-99.99,,,-99.99,,2013-11-21 02:32:00,
2013-11-20 21:42:00,41.0,-99.9,-100.00,SE,130,2.0,9.0,-999,-99.99,,,-99.99,,2013-11-21 02:42:00,
2013-11-20 22:22:00,40.0,-99.9,-100.00,SSE,163,2.0,4.0,-999,-99.99,,,-99.99,,2013-11-21 03:22:00,
2013-11-20 22:34:00,40.0,-99.9,-100.00,SSE,163,2.0,4.0,-999,-99.99,,,-99.99,,2013-11-21 03:34:00,
2013-11-20 22:43:00,40.0,-99.9,-100.00,SSE,163,2.0,4.0,-999,-99.99,,,-99.99,,2013-11-21 03:43:00,
2013-11-20 22:54:00,40.0,-99.9,-100.00,SSE,168,2.0,6.0,-999,-99.99,,,-99.99,,2013-11-21 03:54:00,
2013-11-20 23:00:00,40.0,-99.9,-100.00,SE,131,2.0,4.0,-999,-99.99,,,-99.99,,2013-11-21 04:00:00,
2013-11-20 23:04:00,40.0,-99.9,-100.00,SSE,168,2.0,6.0,-999,-99.99,,,-99.99,,2013-11-21 04:04:00,
2013-11-20 23:24:00,40.0,-99.9,-100.00,SE,131,2.0,4.0,-999,-99.99,,,-99.99,,2013-11-21 04:24:00,
2013-11-20 23:33:00,40.0,-99.9,-100.00,SE,131,2.0,4.0,-999,-99.99,,,-99.99,,2013-11-21 04:33:00,
2013-11-20 23:43:00,40.0,-99.9,-100.00,SE,131,2.0,4.0,-999,-99.99,,,-99.99,,2013-11-21 04:43:00,
2013-11-20 23:53:00,40.0,-99.9,-100.00,SE,131,2.0,4.0,-999,-99.99,,,-99.99,,2013-11-21 04:53:00,